X  Close Metar Aviation Weather Data     LYNI Nis Airport
Temperature
19°C Temperature
6°C Dewpoint
43% Humidity



Wind
4 M/S
9 MPH
14 KM/H
8 KTS



170°
S
Current Conditions

Partly Cloudy Partly Cloudy
Pressure 1011.85 (hPa) - 29.88 (inHg)
Visibility 6 (mile) - 9.7 (km)
Airport
Airport-code LYNI

Location: Nis Airport
Distance: 63 (km)

Metar:
LYNI 251230Z 17008KT 130V240 9999 FEW040 19/06 Q1012 NOSIG

Time: 25-02-2024 13:30 CET